Time;durP1;ratioP1;P1;durP2;ratioP2;P2;SDS_P1;SDS_P2;PMS_P1;PMS_P2;Temp;Humidity;BMP_temperature;BMP_pressure;BME280_temperature;BME280_humidity;BME280_pressure;Samples;Min_cycle;Max_cycle;Signal;HPM_P1;HPM_P2
2022/12/19 00:01:29;;;;;;;30.73;13.50;;;0.60;99.90;;;;;;4991241;28;20104;-37
2022/12/19 00:03:57;;;;;;;29.85;13.07;;;0.70;99.90;;;;;;4999049;28;20100;-37
2022/12/19 00:06:24;;;;;;;27.23;11.55;;;0.70;99.90;;;;;;4997830;28;20081;-37
2022/12/19 00:08:51;;;;;;;26.05;12.00;;;0.70;99.90;;;;;;4990788;28;20073;-37
2022/12/19 00:11:19;;;;;;;26.60;11.18;;;0.70;99.90;;;;;;4994535;28;20056;-37
2022/12/19 00:13:46;;;;;;;26.33;11.52;;;0.70;99.90;;;;;;4992764;28;20124;-37
2022/12/19 00:16:14;;;;;;;23.20;11.45;;;0.80;99.90;;;;;;4998075;28;20121;-37
2022/12/19 00:18:42;;;;;;;24.60;11.40;;;0.80;99.90;;;;;;5007129;28;20125;-37
2022/12/19 00:21:10;;;;;;;32.78;13.18;;;0.80;99.90;;;;;;4996380;28;20038;-37
2022/12/19 00:23:37;;;;;;;30.13;13.15;;;0.90;99.90;;;;;;4994521;28;20034;-37
2022/12/19 00:26:19;;;;;;;24.50;10.77;;;0.80;99.90;;;;;;4997696;28;20475;-37
2022/12/19 00:28:46;;;;;;;27.27;12.55;;;0.90;99.90;;;;;;5000389;28;20124;-37
2022/12/19 00:31:12;;;;;;;24.90;11.10;;;0.90;99.90;;;;;;5005106;28;20042;-37
2022/12/19 00:33:38;;;;;;;24.58;10.90;;;0.90;99.90;;;;;;5004040;28;20403;-37
2022/12/19 00:36:06;;;;;;;24.65;10.55;;;0.90;99.90;;;;;;4999491;28;20041;-37
2022/12/19 00:38:33;;;;;;;28.15;12.57;;;0.90;99.90;;;;;;5001242;28;20038;-37
2022/12/19 00:41:08;;;;;;;26.33;12.10;;;0.90;99.90;;;;;;5007524;28;20603;-37
2022/12/19 00:43:34;;;;;;;27.65;10.80;;;0.90;99.90;;;;;;5000922;28;20645;-37
2022/12/19 00:46:05;;;;;;;29.67;12.82;;;0.90;99.90;;;;;;4997319;28;20066;-37
2022/12/19 00:48:31;;;;;;;28.02;13.02;;;1.00;99.90;;;;;;5004629;28;20105;-37
2022/12/19 00:51:09;;;;;;;28.20;12.65;;;0.90;99.90;;;;;;5001767;28;20476;-37
2022/12/19 00:53:35;;;;;;;27.35;12.85;;;0.90;99.90;;;;;;4996472;28;20049;-37
2022/12/19 00:56:04;;;;;;;28.63;12.63;;;1.00;99.90;;;;;;4999461;28;20046;-37
2022/12/19 00:58:30;;;;;;;30.65;13.15;;;0.90;99.90;;;;;;5002162;28;20125;-37
2022/12/19 01:00:56;;;;;;;27.63;11.90;;;0.90;99.90;;;;;;4999700;28;20061;-37
2022/12/19 01:03:22;;;;;;;20.25;8.55;;;1.00;99.90;;;;;;4997408;28;20034;-38
2022/12/19 01:05:50;;;;;;;31.25;13.00;;;1.00;99.90;;;;;;5004326;28;20030;-37
2022/12/19 01:08:16;;;;;;;28.05;11.98;;;1.00;99.90;;;;;;5008126;28;20042;-37
2022/12/19 01:10:48;;;;;;;24.20;11.57;;;1.00;99.90;;;;;;4996958;28;20411;-37
2022/12/19 01:13:16;;;;;;;26.00;11.73;;;1.00;99.90;;;;;;4998147;28;20496;-38
2022/12/19 01:15:42;;;;;;;26.95;11.57;;;1.00;99.90;;;;;;4997003;28;20053;-37
2022/12/19 01:18:09;;;;;;;28.65;11.90;;;1.00;99.90;;;;;;5001143;28;20037;-37
2022/12/19 01:20:40;;;;;;;27.92;11.35;;;1.00;99.90;;;;;;4996524;28;20041;-37
2022/12/19 01:23:07;;;;;;;24.38;11.85;;;1.00;99.90;;;;;;5004343;28;20057;-37
2022/12/19 01:25:34;;;;;;;26.08;11.77;;;1.10;99.90;;;;;;4999762;28;20038;-37
2022/12/19 01:28:01;;;;;;;22.85;11.07;;;1.10;99.90;;;;;;4998931;28;20041;-37
2022/12/19 01:30:27;;;;;;;24.52;11.10;;;1.10;99.90;;;;;;5006436;28;20181;-37
2022/12/19 01:32:53;;;;;;;29.77;13.57;;;1.10;99.90;;;;;;4996895;28;20522;-37
2022/12/19 01:35:19;;;;;;;29.35;12.75;;;1.10;99.90;;;;;;5000337;28;20038;-37
2022/12/19 01:37:44;;;;;;;30.77;12.45;;;1.10;99.90;;;;;;5005685;28;20444;-36
2022/12/19 01:40:12;;;;;;;30.13;12.07;;;1.10;99.90;;;;;;5000918;28;20064;-37
2022/12/19 01:42:37;;;;;;;24.63;11.38;;;1.10;99.90;;;;;;5001878;28;20038;-36
2022/12/19 01:45:06;;;;;;;24.75;10.93;;;1.10;99.90;;;;;;4984777;28;20069;-37
2022/12/19 01:47:54;;;;;;;27.77;11.90;;;1.10;99.90;;;;;;4998789;28;20409;-37
2022/12/19 01:50:44;;;;;;;25.85;11.48;;;1.10;99.90;;;;;;4994775;28;20050;-37
2022/12/19 01:53:11;;;;;;;27.77;13.30;;;1.10;99.90;;;;;;4988449;28;20499;-37
2022/12/19 01:55:39;;;;;;;29.75;13.65;;;1.10;99.90;;;;;;4994979;28;20045;-36
2022/12/19 01:58:06;;;;;;;25.15;9.45;;;1.10;99.90;;;;;;4999678;28;20500;-37
2022/12/19 02:00:32;;;;;;;30.48;13.02;;;1.10;99.90;;;;;;4999456;28;20484;-37
2022/12/19 02:03:36;;;;;;;30.65;12.25;;;1.10;99.90;;;;;;5001655;28;20045;-36
2022/12/19 02:06:03;;;;;;;30.77;12.93;;;1.10;99.90;;;;;;4991908;28;20315;-38
2022/12/19 02:08:31;;;;;;;29.98;13.00;;;1.10;99.90;;;;;;5001645;28;20061;-37
2022/12/19 02:10:57;;;;;;;32.03;13.27;;;1.10;99.90;;;;;;5000713;28;20581;-37
2022/12/19 02:13:23;;;;;;;33.65;13.55;;;1.10;99.90;;;;;;5003468;28;20041;-37
2022/12/19 02:15:49;;;;;;;27.48;11.98;;;1.10;99.90;;;;;;4995999;28;20101;-36
2022/12/19 02:18:35;;;;;;;26.63;13.32;;;1.10;99.90;;;;;;5007330;28;20486;-37
2022/12/19 02:21:21;;;;;;;25.83;10.55;;;1.10;99.90;;;;;;5006112;28;20061;-37
2022/12/19 02:23:47;;;;;;;28.70;13.50;;;1.10;99.90;;;;;;5000908;28;20885;-37
2022/12/19 02:26:19;;;;;;;28.98;13.40;;;1.10;99.90;;;;;;4993858;28;20046;-37
2022/12/19 02:29:28;;;;;;;29.63;12.97;;;1.10;99.90;;;;;;5005414;28;20034;-37
2022/12/19 02:32:10;;;;;;;23.95;10.75;;;1.20;99.90;;;;;;4957755;28;20057;-36
2022/12/19 02:35:03;;;;;;;31.60;12.93;;;1.20;99.90;;;;;;4994570;28;20121;-37
2022/12/19 02:37:44;;;;;;;31.35;13.77;;;1.20;99.90;;;;;;5002423;28;20494;-36
2022/12/19 02:40:09;;;;;;;26.25;12.10;;;1.20;99.90;;;;;;5003052;28;20125;-37
2022/12/19 02:42:40;;;;;;;28.75;11.35;;;1.30;99.90;;;;;;4995684;28;20141;-37
2022/12/19 02:45:09;;;;;;;20.30;9.93;;;1.30;99.90;;;;;;4992366;28;20173;-37
2022/12/19 02:47:37;;;;;;;31.27;13.52;;;1.30;99.90;;;;;;4976700;28;20049;-37
2022/12/19 02:50:03;;;;;;;32.40;14.20;;;1.30;99.90;;;;;;4992980;28;20427;-36
2022/12/19 02:52:29;;;;;;;27.83;12.70;;;1.30;99.90;;;;;;5002745;28;20483;-38
2022/12/19 02:54:59;;;;;;;30.05;14.45;;;1.30;99.90;;;;;;4994663;28;20088;-38
2022/12/19 02:57:32;;;;;;;33.30;15.18;;;1.40;99.90;;;;;;4997703;28;20411;-37
2022/12/19 03:00:00;;;;;;;30.33;14.27;;;1.40;99.90;;;;;;4999706;28;20038;-37
2022/12/19 03:02:48;;;;;;;39.75;15.73;;;1.40;99.90;;;;;;4978459;28;20053;-37
2022/12/19 03:05:43;;;;;;;24.48;11.73;;;1.40;99.90;;;;;;5000182;28;20108;-36
2022/12/19 03:08:24;;;;;;;35.33;15.15;;;1.50;99.90;;;;;;4977804;28;20050;-37
2022/12/19 03:10:52;;;;;;;31.20;11.50;;;1.40;99.90;;;;;;4999072;28;20092;-38
2022/12/19 03:13:26;;;;;;;28.45;13.07;;;1.40;99.90;;;;;;4998824;28;20121;-38
2022/12/19 03:15:52;;;;;;;32.05;14.25;;;1.50;99.90;;;;;;5003038;28;20072;-38
2022/12/19 03:18:19;;;;;;;29.65;12.77;;;1.50;99.90;;;;;;4999615;28;20093;-37
2022/12/19 03:21:06;;;;;;;33.47;14.75;;;1.50;99.90;;;;;;4998945;28;20046;-37
2022/12/19 03:23:32;;;;;;;31.45;13.85;;;1.60;99.90;;;;;;5002694;28;20038;-38
2022/12/19 03:26:05;;;;;;;25.23;11.07;;;1.60;99.90;;;;;;4996036;28;20038;-38
2022/12/19 03:28:43;;;;;;;36.25;14.40;;;1.60;99.90;;;;;;4994325;28;20042;-37
2022/12/19 03:31:11;;;;;;;27.35;11.55;;;1.70;99.90;;;;;;4999380;28;20046;-37
2022/12/19 03:33:39;;;;;;;38.50;14.80;;;1.70;99.90;;;;;;4992024;28;20046;-38
2022/12/19 03:36:11;;;;;;;36.95;16.00;;;1.70;99.90;;;;;;4993220;28;20030;-38
2022/12/19 03:38:39;;;;;;;34.85;15.23;;;1.80;99.90;;;;;;5002201;28;20046;-37
2022/12/19 03:41:09;;;;;;;35.03;14.88;;;1.80;99.90;;;;;;4999272;28;20536;-41
2022/12/19 03:43:36;;;;;;;38.83;15.27;;;1.80;99.90;;;;;;5000764;28;20046;-38
2022/12/19 03:46:15;;;;;;;32.28;14.88;;;1.80;99.90;;;;;;4997875;28;20537;-38
2022/12/19 03:48:49;;;;;;;30.08;12.88;;;1.90;99.90;;;;;;4995541;28;20084;-42
2022/12/19 03:51:36;;;;;;;36.97;14.82;;;1.90;99.90;;;;;;5003616;28;20314;-40
2022/12/19 03:54:01;;;;;;;36.15;14.65;;;1.90;99.90;;;;;;4985858;28;20515;-38
2022/12/19 03:57:06;;;;;;;22.73;10.23;;;2.00;99.90;;;;;;4996662;28;20049;-38
2022/12/19 03:59:49;;;;;;;31.92;14.50;;;2.00;99.90;;;;;;4997383;28;20042;-38
2022/12/19 04:02:16;;;;;;;;;;;2.00;99.90;;;;;;4984469;28;20042;-38
2022/12/19 04:04:46;;;;;;;24.90;11.65;;;2.10;99.90;;;;;;4995927;28;19926;-39
2022/12/19 04:07:13;;;;;;;21.00;8.63;;;2.10;99.90;;;;;;4995310;28;20042;-38
2022/12/19 04:09:42;;;;;;;35.50;15.07;;;2.10;99.90;;;;;;4986492;28;20038;-38
2022/12/19 04:12:13;;;;;;;32.33;14.65;;;2.10;99.90;;;;;;4997105;28;20041;-47
2022/12/19 04:14:39;;;;;;;30.15;13.88;;;2.20;99.90;;;;;;4995647;28;20089;-38
2022/12/19 04:17:21;;;;;;;23.95;8.98;;;2.20;99.90;;;;;;4978364;28;20566;-38
2022/12/19 04:20:01;;;;;;;30.65;13.25;;;2.20;99.90;;;;;;5000696;28;20077;-38
2022/12/19 04:22:45;;;;;;;33.67;14.07;;;2.20;99.90;;;;;;4994849;28;20526;-38
2022/12/19 04:25:18;;;;;;;33.00;15.05;;;2.20;99.90;;;;;;4992660;28;20644;-46
2022/12/19 04:27:51;;;;;;;40.30;15.43;;;2.20;99.90;;;;;;4990624;28;20034;-43
2022/12/19 04:30:18;;;;;;;32.92;14.07;;;2.20;99.90;;;;;;4992534;28;20037;-45
2022/12/19 04:32:45;;;;;;;35.55;14.98;;;2.20;99.90;;;;;;4992585;28;20042;-38
2022/12/19 04:35:11;;;;;;;24.92;10.35;;;2.20;99.90;;;;;;4989569;28;20125;-38
2022/12/19 04:37:37;;;;;;;30.88;13.65;;;2.20;99.90;;;;;;4996157;28;20042;-38
2022/12/19 04:40:04;;;;;;;35.50;14.65;;;2.20;99.90;;;;;;4986763;28;20042;-39
2022/12/19 04:42:30;;;;;;;22.42;10.80;;;2.30;99.90;;;;;;4981701;28;20042;-39
2022/12/19 04:44:55;;;;;;;25.70;11.43;;;2.30;99.90;;;;;;5000416;28;20368;-38
2022/12/19 04:47:21;;;;;;;37.78;15.00;;;2.30;99.90;;;;;;4993599;28;20401;-38
2022/12/19 04:49:47;;;;;;;28.17;11.85;;;2.40;99.90;;;;;;4998174;28;20038;-38
2022/12/19 04:52:12;;;;;;;24.83;10.88;;;2.40;99.90;;;;;;4997510;28;20050;-38
2022/12/19 04:54:38;;;;;;;37.65;16.13;;;2.30;99.90;;;;;;4992953;28;20512;-38
2022/12/19 04:57:04;;;;;;;33.72;14.68;;;2.40;99.90;;;;;;4975799;28;21684;-37
2022/12/19 04:59:30;;;;;;;27.48;11.45;;;2.40;99.90;;;;;;5002027;28;20073;-39
2022/12/19 05:01:56;;;;;;;24.80;11.18;;;2.40;99.90;;;;;;4979401;28;20053;-40
2022/12/19 05:04:22;;;;;;;30.50;13.25;;;2.40;99.90;;;;;;4997616;28;20100;-39
2022/12/19 05:06:48;;;;;;;38.78;15.38;;;2.40;99.90;;;;;;4999262;28;20029;-38
2022/12/19 05:09:13;;;;;;;36.60;15.50;;;2.40;99.90;;;;;;4995764;28;20041;-37
2022/12/19 05:11:39;;;;;;;32.80;12.70;;;2.40;99.90;;;;;;4992214;28;20044;-37
2022/12/19 05:14:05;;;;;;;33.17;14.85;;;2.40;99.90;;;;;;4998209;28;20030;-39
2022/12/19 05:16:30;;;;;;;32.65;15.00;;;2.40;99.90;;;;;;5001650;28;20054;-37
2022/12/19 05:18:56;;;;;;;31.67;13.90;;;2.50;99.90;;;;;;4985234;28;20077;-37
2022/12/19 05:21:22;;;;;;;33.30;14.27;;;2.50;99.90;;;;;;4988208;28;20791;-36
2022/12/19 05:23:48;;;;;;;31.20;13.27;;;2.50;99.90;;;;;;4994886;28;20124;-37
2022/12/19 05:26:14;;;;;;;28.02;12.98;;;2.60;99.90;;;;;;4999863;28;20038;-37
2022/12/19 05:28:40;;;;;;;25.13;12.90;;;2.60;99.90;;;;;;4995355;28;20038;-37
2022/12/19 05:31:15;;;;;;;25.70;10.60;;;2.60;99.90;;;;;;4992133;28;20122;-39
2022/12/19 05:33:41;;;;;;;36.40;14.45;;;2.60;99.90;;;;;;4989635;28;20048;-37
2022/12/19 05:36:08;;;;;;;27.52;12.68;;;2.70;99.90;;;;;;4992797;28;20046;-39
2022/12/19 05:38:34;;;;;;;23.95;10.02;;;2.70;99.90;;;;;;4996886;28;20042;-37
2022/12/19 05:41:08;;;;;;;31.55;13.73;;;2.70;99.90;;;;;;5000676;28;20040;-37
2022/12/19 05:43:34;;;;;;;23.75;10.45;;;2.70;99.90;;;;;;5000332;28;20135;-37
2022/12/19 05:45:59;;;;;;;23.98;10.50;;;2.70;99.90;;;;;;4997943;28;20678;-37
2022/12/19 05:48:25;;;;;;;25.85;11.93;;;2.80;99.90;;;;;;4993437;28;20042;-37
2022/12/19 05:50:53;;;;;;;22.88;11.50;;;2.80;99.90;;;;;;5000139;28;20483;-39
2022/12/19 05:53:19;;;;;;;28.65;13.65;;;2.90;99.90;;;;;;4996921;28;20447;-36
2022/12/19 05:55:44;;;;;;;30.05;12.55;;;2.90;99.90;;;;;;4998567;28;20177;-37
2022/12/19 05:58:10;;;;;;;26.23;11.88;;;2.90;99.90;;;;;;4997973;28;20399;-36
2022/12/19 06:00:36;;;;;;;23.02;10.68;;;2.90;99.90;;;;;;5001968;28;20053;-37
2022/12/19 06:03:02;;;;;;;25.35;11.25;;;2.90;99.90;;;;;;4995537;28;20537;-36
2022/12/19 06:05:27;;;;;;;19.15;8.32;;;3.00;99.90;;;;;;5006294;28;20452;-37
2022/12/19 06:07:53;;;;;;;22.15;9.93;;;3.00;99.90;;;;;;4998927;28;20599;-36
2022/12/19 06:10:19;;;;;;;30.65;12.70;;;3.10;99.90;;;;;;5001442;28;20495;-37
2022/12/19 06:12:44;;;;;;;22.00;11.60;;;3.10;99.90;;;;;;4997280;28;20088;-40
2022/12/19 06:15:11;;;;;;;21.65;9.82;;;3.10;99.90;;;;;;5006001;28;20292;-39
2022/12/19 06:17:36;;;;;;;21.52;9.50;;;3.10;99.90;;;;;;5007505;28;20050;-37
2022/12/19 06:20:02;;;;;;;27.95;12.43;;;3.10;99.90;;;;;;4996215;28;20060;-37
2022/12/19 06:22:28;;;;;;;24.88;10.32;;;3.10;99.90;;;;;;4984823;28;20054;-37
2022/12/19 06:24:54;;;;;;;14.88;8.38;;;3.20;99.90;;;;;;5004840;28;20594;-37
2022/12/19 06:27:19;;;;;;;23.02;10.93;;;3.20;99.90;;;;;;4991412;28;20506;-37
2022/12/19 06:29:45;;;;;;;15.65;6.97;;;3.20;99.90;;;;;;4994294;28;20468;-37
2022/12/19 06:32:10;;;;;;;23.35;10.30;;;3.30;99.90;;;;;;5000760;28;20038;-38
2022/12/19 06:34:36;;;;;;;18.63;8.32;;;3.30;99.90;;;;;;4996558;28;20495;-38
2022/12/19 06:37:02;;;;;;;25.80;10.30;;;3.30;99.90;;;;;;4979421;28;20112;-37
2022/12/19 06:39:27;;;;;;;22.00;10.90;;;3.30;99.90;;;;;;4989793;28;20061;-39
2022/12/19 06:44:37;;;;;;;25.92;11.68;;;3.40;99.90;;;;;;4992827;28;20077;-37
2022/12/19 06:47:03;;;;;;;20.98;10.68;;;3.40;99.90;;;;;;4994032;28;20089;-37
2022/12/19 06:49:29;;;;;;;21.48;9.75;;;3.50;99.90;;;;;;5004858;28;20034;-39
2022/12/19 06:51:54;;;;;;;23.85;10.35;;;3.50;99.90;;;;;;4991041;28;20046;-37
2022/12/19 06:54:20;;;;;;;22.40;10.50;;;3.50;99.90;;;;;;4997216;28;20151;-37
2022/12/19 06:56:46;;;;;;;24.60;11.40;;;3.60;99.90;;;;;;4998097;28;20042;-37
2022/12/19 06:59:13;;;;;;;19.98;9.93;;;3.60;99.90;;;;;;4990346;28;20056;-37
2022/12/19 07:01:48;;;;;;;18.17;8.55;;;3.60;99.90;;;;;;4997124;28;20034;-37
2022/12/19 07:04:19;;;;;;;22.92;10.68;;;3.70;99.90;;;;;;4991397;28;20049;-38
2022/12/19 07:06:45;;;;;;;25.17;11.93;;;3.70;99.90;;;;;;4993793;28;20034;-37
2022/12/19 07:09:10;;;;;;;26.27;9.27;;;3.70;99.90;;;;;;4991779;28;20506;-37
2022/12/19 07:11:36;;;;;;;15.20;6.90;;;3.70;99.90;;;;;;4996749;28;20046;-39
2022/12/19 07:14:02;;;;;;;21.17;8.95;;;3.70;99.90;;;;;;4991226;28;20046;-37
2022/12/19 07:16:28;;;;;;;14.32;6.63;;;3.70;99.90;;;;;;4997044;28;20049;-37
2022/12/19 07:18:54;;;;;;;20.17;10.05;;;3.70;99.90;;;;;;4994806;28;20042;-37
2022/12/19 07:21:21;;;;;;;23.60;10.68;;;3.80;99.90;;;;;;4991706;28;20049;-39
2022/12/19 07:23:46;;;;;;;23.23;10.10;;;3.80;99.90;;;;;;4999297;28;20675;-38
2022/12/19 07:26:12;;;;;;;25.70;11.02;;;3.80;99.90;;;;;;5004465;28;20034;-40
2022/12/19 07:28:38;;;;;;;22.00;10.38;;;3.80;99.90;;;;;;4995913;28;20029;-38
2022/12/19 07:31:04;;;;;;;23.40;10.40;;;3.90;99.90;;;;;;4993579;28;20498;-37
2022/12/19 07:33:29;;;;;;;22.05;10.25;;;3.90;99.90;;;;;;4988035;28;20054;-37
2022/12/19 07:35:55;;;;;;;20.13;9.68;;;3.90;99.90;;;;;;4994426;28;20478;-36
2022/12/19 07:38:21;;;;;;;20.17;9.45;;;4.00;99.90;;;;;;4999986;28;20037;-37
2022/12/19 07:40:47;;;;;;;21.08;9.60;;;4.00;99.90;;;;;;4999575;28;20038;-37
2022/12/19 07:43:12;;;;;;;15.10;8.00;;;4.00;99.90;;;;;;4998100;28;20054;-39
2022/12/19 07:45:38;;;;;;;12.93;5.90;;;4.10;99.90;;;;;;5000237;28;20046;-37
2022/12/19 07:48:05;;;;;;;19.42;9.13;;;4.10;99.90;;;;;;4996329;28;20688;-36
2022/12/19 07:50:31;;;;;;;19.55;8.80;;;4.10;99.90;;;;;;4998411;28;20045;-39
2022/12/19 07:52:58;;;;;;;19.60;8.63;;;4.10;99.90;;;;;;5005705;28;20088;-36
2022/12/19 07:55:24;;;;;;;18.27;9.13;;;4.10;99.90;;;;;;5004851;28;20046;-37
2022/12/19 07:57:50;;;;;;;15.00;6.95;;;4.10;99.90;;;;;;5000957;28;20056;-37
2022/12/19 08:00:16;;;;;;;17.67;8.18;;;4.20;99.90;;;;;;5000537;28;20046;-37
2022/12/19 08:02:41;;;;;;;22.23;9.88;;;4.20;99.90;;;;;;5008071;28;20034;-38
2022/12/19 08:05:07;;;;;;;21.92;9.68;;;4.20;99.90;;;;;;5004422;28;20470;-39
2022/12/19 08:07:33;;;;;;;20.45;9.23;;;4.20;99.90;;;;;;5007114;28;20525;-41
2022/12/19 08:09:59;;;;;;;18.05;9.20;;;4.20;99.90;;;;;;4991518;28;20729;-38
2022/12/19 08:12:25;;;;;;;13.70;7.15;;;4.20;99.90;;;;;;4999273;28;20057;-42
2022/12/19 08:14:51;;;;;;;20.15;8.85;;;4.20;99.90;;;;;;5001726;28;20100;-40
2022/12/19 08:17:17;;;;;;;20.70;8.13;;;4.30;99.90;;;;;;4990825;28;20042;-39
2022/12/19 08:19:43;;;;;;;16.83;7.97;;;4.30;99.90;;;;;;4998382;28;20137;-39
2022/12/19 08:22:08;;;;;;;15.07;6.78;;;4.30;99.90;;;;;;4993106;28;20127;-42
2022/12/19 08:24:34;;;;;;;17.67;8.77;;;4.40;99.90;;;;;;5005244;28;20451;-40
2022/12/19 08:27:00;;;;;;;18.05;8.93;;;4.40;99.90;;;;;;4993212;28;20035;-39
2022/12/19 08:29:25;;;;;;;21.33;8.68;;;4.40;99.90;;;;;;4995455;28;20042;-38
2022/12/19 08:31:51;;;;;;;22.02;10.13;;;4.50;99.90;;;;;;4989446;28;20096;-38
2022/12/19 08:34:17;;;;;;;22.38;9.10;;;4.50;99.90;;;;;;4995651;28;20045;-39
2022/12/19 08:36:42;;;;;;;21.35;8.95;;;4.50;99.90;;;;;;4990078;28;20119;-40
2022/12/19 08:39:08;;;;;;;17.92;8.55;;;4.60;99.90;;;;;;4992349;28;20485;-39
2022/12/19 08:41:34;;;;;;;18.95;9.32;;;4.60;99.90;;;;;;4992930;28;20073;-39
2022/12/19 08:44:00;;;;;;;17.27;7.05;;;4.70;99.90;;;;;;4996772;28;20388;-39
2022/12/19 08:46:26;;;;;;;16.67;6.90;;;4.70;99.90;;;;;;4989410;28;20074;-39
2022/12/19 08:48:52;;;;;;;21.40;9.48;;;4.70;99.90;;;;;;4987244;28;20607;-40
2022/12/19 08:51:18;;;;;;;14.85;6.95;;;4.80;99.90;;;;;;4989791;28;20034;-44
2022/12/19 08:53:45;;;;;;;17.80;8.82;;;4.80;99.90;;;;;;4992523;28;20344;-38
2022/12/19 08:56:15;;;;;;;20.50;9.30;;;4.90;99.90;;;;;;4999845;28;20053;-39
2022/12/19 08:58:42;;;;;;;20.35;9.77;;;4.90;99.90;;;;;;4999802;28;20056;-37
2022/12/19 09:01:12;;;;;;;19.38;9.23;;;5.00;99.90;;;;;;4998111;28;20057;-40
2022/12/19 09:03:39;;;;;;;18.27;9.15;;;5.00;99.90;;;;;;4993636;28;20088;-39
2022/12/19 09:06:06;;;;;;;18.30;8.52;;;5.10;99.90;;;;;;4992865;28;20499;-39
2022/12/19 09:08:34;;;;;;;21.45;10.00;;;5.10;99.90;;;;;;4997948;28;20069;-39
2022/12/19 09:11:06;;;;;;;17.17;8.50;;;5.10;99.90;;;;;;4996879;28;20107;-40
2022/12/19 09:13:32;;;;;;;12.52;6.43;;;5.20;99.90;;;;;;4997825;28;20407;-39
2022/12/19 09:16:19;;;;;;;17.20;8.60;;;5.30;99.90;;;;;;4994720;28;20407;-38
2022/12/19 09:18:46;;;;;;;10.43;4.43;;;5.30;99.90;;;;;;4996138;28;20494;-38
2022/12/19 09:21:13;;;;;;;16.35;8.45;;;5.40;99.90;;;;;;4982040;28;20663;-39
2022/12/19 09:23:40;;;;;;;18.50;8.27;;;5.50;99.90;;;;;;5000564;28;20236;-38
2022/12/19 09:26:10;;;;;;;17.70;8.77;;;5.50;99.90;;;;;;4989141;28;20045;-41
2022/12/19 09:28:38;;;;;;;18.33;8.93;;;5.50;99.90;;;;;;4990410;28;20135;-38
2022/12/19 09:31:06;;;;;;;16.85;8.35;;;5.50;99.90;;;;;;4992353;28;20550;-38
2022/12/19 09:33:34;;;;;;;14.85;7.75;;;5.60;99.90;;;;;;4998163;28;20549;-43
2022/12/19 09:36:00;;;;;;;10.52;4.82;;;5.60;99.90;;;;;;4994785;28;20126;-38
2022/12/19 09:38:28;;;;;;;14.57;8.20;;;5.70;99.90;;;;;;4997796;28;20052;-39
2022/12/19 09:40:53;;;;;;;16.50;8.27;;;5.70;99.90;;;;;;4997239;28;20499;-47
2022/12/19 09:43:35;;;;;;;17.27;8.68;;;5.80;99.90;;;;;;4999204;28;20046;-39
2022/12/19 09:46:37;;;;;;;15.25;8.18;;;5.80;99.90;;;;;;4993589;28;20267;-39
2022/12/19 09:49:15;;;;;;;14.27;7.10;;;5.80;99.90;;;;;;4985870;28;20082;-40
2022/12/19 09:51:52;;;;;;;16.83;7.53;;;5.90;99.90;;;;;;5001723;28;20490;-39
2022/12/19 09:55:00;;;;;;;16.02;8.18;;;6.00;99.90;;;;;;4977747;28;20042;-39
2022/12/19 09:57:57;;;;;;;16.35;7.35;;;6.10;99.90;;;;;;4954285;28;20079;-39
2022/12/19 10:00:23;;;;;;;11.13;5.35;;;6.10;99.90;;;;;;4995756;28;20075;-40
2022/12/19 10:02:58;;;;;;;19.27;8.70;;;6.20;99.90;;;;;;5003824;28;20108;-39
2022/12/19 10:05:45;;;;;;;19.27;8.88;;;6.20;99.90;;;;;;4998699;28;20041;-39
2022/12/19 10:08:36;;;;;;;19.55;9.23;;;6.20;99.90;;;;;;5004823;28;20052;-38
2022/12/19 10:11:01;;;;;;;18.73;8.70;;;6.20;99.90;;;;;;5001739;28;20508;-39
2022/12/19 10:13:44;;;;;;;19.67;8.50;;;6.20;99.90;;;;;;4996862;28;20053;-41
2022/12/19 10:16:17;;;;;;;13.27;4.97;;;6.30;99.90;;;;;;4997444;28;20042;-38
2022/12/19 10:18:52;;;;;;;13.15;7.10;;;6.30;99.90;;;;;;4992751;28;20042;-43
2022/12/19 10:21:36;;;;;;;16.70;7.78;;;6.30;99.90;;;;;;5004491;28;20034;-43
2022/12/19 10:24:26;;;;;;;13.52;6.00;;;6.40;99.90;;;;;;4997901;28;20515;-40
2022/12/19 10:26:57;;;;;;;15.13;7.35;;;6.40;99.90;;;;;;4993812;28;20661;-42
2022/12/19 10:29:56;;;;;;;11.10;5.40;;;6.50;99.90;;;;;;4995836;28;20049;-43
2022/12/19 10:33:01;;;;;;;12.50;6.63;;;6.60;99.90;;;;;;5004686;28;20046;-41
2022/12/19 10:35:36;;;;;;;12.98;6.45;;;6.70;99.90;;;;;;4995451;28;20046;-45
2022/12/19 10:38:11;;;;;;;11.57;5.75;;;6.70;99.90;;;;;;5000682;28;20533;-41
2022/12/19 10:40:39;;;;;;;13.43;6.70;;;6.80;99.90;;;;;;4996319;28;20046;-39
2022/12/19 10:43:33;;;;;;;14.02;7.07;;;6.90;99.90;;;;;;4995479;28;20081;-40
2022/12/19 10:46:10;;;;;;;14.40;7.22;;;6.90;99.90;;;;;;4994258;28;20086;-40
2022/12/19 10:48:35;;;;;;;12.35;6.30;;;6.90;99.90;;;;;;4998771;28;20764;-39
2022/12/19 10:51:01;;;;;;;17.80;6.95;;;6.90;99.90;;;;;;4993189;28;20038;-38
2022/12/19 10:53:28;;;;;;;13.80;6.97;;;7.00;99.90;;;;;;4987879;28;20049;-39
2022/12/19 10:56:00;;;;;;;12.40;6.20;;;7.00;99.90;;;;;;4993091;28;20371;-39
2022/12/19 10:58:36;;;;;;;13.52;6.22;;;7.00;99.90;;;;;;4992657;28;20056;-38
2022/12/19 11:01:16;;;;;;;14.32;6.78;;;7.00;99.90;;;;;;4995095;28;20089;-40
2022/12/19 11:03:45;;;;;;;13.80;7.18;;;7.00;99.90;;;;;;4996411;28;20311;-39
2022/12/19 11:06:48;;;;;;;15.27;6.80;;;7.10;99.90;;;;;;5004451;28;20033;-39
2022/12/19 11:09:41;;;;;;;11.95;6.47;;;7.10;99.90;;;;;;4938908;28;20051;-38
2022/12/19 11:12:06;;;;;;;11.77;6.65;;;7.20;99.90;;;;;;4977117;28;20530;-39
2022/12/19 11:14:34;;;;;;;13.15;6.20;;;7.20;99.90;;;;;;4995967;28;20042;-38
2022/12/19 11:17:01;;;;;;;11.05;6.03;;;7.20;99.90;;;;;;5003428;28;20046;-40
2022/12/19 11:19:34;;;;;;;13.55;6.15;;;7.20;99.90;;;;;;4998433;28;20442;-39
2022/12/19 11:22:13;;;;;;;12.73;5.82;;;7.20;99.90;;;;;;4997177;28;20034;-38
2022/12/19 11:24:45;;;;;;;9.73;4.93;;;7.20;99.90;;;;;;4996367;28;20065;-39
2022/12/19 11:27:44;;;;;;;7.85;3.67;;;7.30;99.90;;;;;;4998540;28;20041;-39
2022/12/19 11:30:22;;;;;;;11.07;5.65;;;7.30;99.90;;;;;;4994190;28;20041;-39
2022/12/19 11:33:12;;;;;;;13.90;6.13;;;7.50;99.90;;;;;;4990099;28;20045;-39
2022/12/19 11:35:50;;;;;;;10.57;4.97;;;7.60;99.90;;;;;;4992276;28;20522;-39
2022/12/19 11:38:44;;;;;;;10.25;5.45;;;7.60;99.90;;;;;;5002261;28;20061;-39
2022/12/19 11:41:16;;;;;;;8.60;5.00;;;7.60;99.90;;;;;;4997966;28;20041;-46
2022/12/19 11:44:00;;;;;;;8.10;4.32;;;7.60;99.90;;;;;;5000372;28;20088;-46
2022/12/19 11:46:42;;;;;;;9.60;4.60;;;7.70;99.90;;;;;;5007423;28;20050;-40
2022/12/19 11:49:36;;;;;;;10.93;4.93;;;7.80;99.90;;;;;;4990092;28;20700;-39
2022/12/19 11:52:21;;;;;;;10.48;5.38;;;7.80;99.90;;;;;;4981528;28;20034;-39
2022/12/19 11:54:59;;;;;;;11.52;5.35;;;7.90;99.90;;;;;;4997539;28;20034;-39
2022/12/19 11:57:26;;;;;;;10.30;5.20;;;7.90;99.90;;;;;;4999312;28;20039;-40
2022/12/19 11:59:52;;;;;;;9.45;5.13;;;7.90;99.90;;;;;;4987588;28;20042;-39
2022/12/19 12:02:55;;;;;;;9.85;4.93;;;7.90;99.90;;;;;;4992387;28;20042;-39
2022/12/19 12:05:45;;;;;;;10.15;4.82;;;7.90;99.90;;;;;;5003037;28;20526;-38
2022/12/19 12:08:30;;;;;;;10.50;5.10;;;7.90;99.90;;;;;;4992643;28;20049;-39
2022/12/19 12:11:41;;;;;;;9.05;4.53;;;7.90;99.90;;;;;;4994431;28;20045;-38
2022/12/19 12:14:16;;;;;;;7.63;3.53;;;8.00;99.90;;;;;;4986040;28;20065;-38
2022/12/19 12:17:21;;;;;;;7.97;3.97;;;8.10;99.90;;;;;;5003463;28;20407;-39
2022/12/19 12:20:02;;;;;;;8.85;4.63;;;8.10;99.90;;;;;;4986680;28;20045;-40
2022/12/19 12:22:53;;;;;;;7.57;4.28;;;8.20;99.90;;;;;;4988803;28;20045;-39
2022/12/19 12:25:30;;;;;;;6.72;3.25;;;8.30;99.90;;;;;;4992623;28;20480;-46
2022/12/19 12:28:06;;;;;;;7.35;3.47;;;8.30;99.90;;;;;;4987529;28;20038;-46
2022/12/19 12:30:56;;;;;;;7.05;3.42;;;8.30;99.90;;;;;;4990299;28;20037;-39
2022/12/19 12:33:52;;;;;;;7.57;4.32;;;8.40;99.90;;;;;;4990496;28;20041;-41
2022/12/19 12:36:34;;;;;;;7.32;4.18;;;8.40;99.90;;;;;;4990230;28;20067;-38
2022/12/19 12:39:09;;;;;;;7.03;4.13;;;8.40;99.90;;;;;;4991756;28;20153;-39
2022/12/19 12:42:08;;;;;;;8.38;4.53;;;8.40;99.90;;;;;;4993375;28;20068;-40
2022/12/19 12:44:38;;;;;;;8.00;4.53;;;8.40;99.90;;;;;;4992709;28;20088;-39
2022/12/19 12:47:10;;;;;;;6.55;3.95;;;8.40;99.90;;;;;;4975268;28;20130;-40
2022/12/19 12:49:47;;;;;;;7.77;4.40;;;8.40;99.90;;;;;;4988097;28;20046;-39
2022/12/19 12:52:26;;;;;;;8.43;4.53;;;8.40;99.90;;;;;;4999576;28;20088;-40
2022/12/19 12:54:54;;;;;;;11.07;3.88;;;8.40;99.90;;;;;;4999133;28;20042;-40
2022/12/19 12:57:33;;;;;;;8.57;4.53;;;8.40;99.90;;;;;;5008061;28;20120;-39
2022/12/19 13:00:25;;;;;;;8.02;4.70;;;8.40;99.90;;;;;;4996517;28;20040;-39
2022/12/19 13:02:53;;;;;;;7.18;3.13;;;8.40;99.90;;;;;;4998549;28;20293;-38
2022/12/19 13:05:31;;;;;;;8.85;4.15;;;8.50;99.90;;;;;;4988335;28;20048;-38
2022/12/19 13:07:57;;;;;;;7.45;4.28;;;8.50;99.90;;;;;;5000763;28;20112;-39
2022/12/19 13:10:29;;;;;;;8.02;4.70;;;8.50;99.90;;;;;;5000931;28;20038;-39